Salvamar Mimosa — EC2473 — position and weather

sailwx.info

Track history (hours):
 
Tides and Currents Weather Stations Pressure Air Temp Water Temp Dewpoint Dewpoint Depression Visibility Wind Speed Wind Dir Waves Ship Positions

Salvamar Mimosa

Last reported at 2017-Jan-15 12:15 UTC. Time now 2017-Jan-16 21:53 UTC.
Position N 37°32' W 001°04'.

Length 21 m.

MMSI: 224363280.

Date/timePositionNaut miles runAvg speedWind from/ knotsBaromVisibWave heightAir tempDewpointWater temp
2017-Jan-15 12:15N 37°32' W 001°04'2320.6
2017-Jan-15 11:07N 37°24' W 001°32'29 1.8
2017-Jan-14 19:04N 37°36' W 000°59'2919.4
2017-Jan-14 17:34N 37°24' W 001°33'2 1.7
2017-Jan-14 16:33N 37°24' W 001°35'0 0.0
2017-Jan-14 15:33N 37°24' W 001°35'0 0.0
2017-Jan-14 14:33N 37°24' W 001°35'0 0.0
2017-Jan-14 13:33N 37°24' W 001°35'0 0.0
2017-Jan-14 12:33N 37°24' W 001°35'2417.5
2017-Jan-14 11:12N 37°32' W 001°06'7 0.4
2017-Jan-13 17:08N 37°36' W 000°59'1118.3
2017-Jan-13 16:32N 37°30' W 001°11'2020.1
2017-Jan-13 15:34N 37°24' W 001°34'0 0.3
2017-Jan-13 14:33N 37°24' W 001°35'0 0.0
2017-Jan-13 13:33N 37°24' W 001°35'0 0.0
2017-Jan-13 12:33N 37°24' W 001°35'0 0.0
2017-Jan-13 11:33N 37°24' W 001°35'0 0.0
2017-Jan-13 10:33N 37°24' W 001°35'3013.9
2017-Jan-13 08:23N 37°35' W 000°59'1 0.0
2017-Jan-12 16:28N 37°36' W 000°59'3015.6
2017-Jan-12 14:33N 37°24' W 001°33'1 1.2
2017-Jan-12 13:33N 37°24' W 001°35'0 0.0
2017-Jan-12 12:33N 37°24' W 001°35'0 0.0
2017-Jan-12 11:33N 37°24' W 001°35'0 0.0
2017-Jan-12 10:33N 37°24' W 001°35'0 0.0
2017-Jan-12 09:33N 37°24' W 001°35'0 0.0
2017-Jan-12 08:33N 37°24' W 001°35'3014.0
2017-Jan-12 06:23N 37°36' W 000°59'  
Track history (hours):
 
Tides and Currents Weather Stations Pressure Air Temp Water Temp Dewpoint Dewpoint Depression Visibility Wind Speed Wind Dir Waves Ship Positions

Salvamar Mimosa

Last reported at 2017-Jan-15 12:15 UTC. Time now 2017-Jan-16 21:53 UTC.
Position N 37°32' W 001°04'.

Length 21 m.

MMSI: 224363280.

Date/timePositionNaut miles runAvg speedWind from/ knotsBaromVisibWave heightAir tempDewpointWater temp
2017-Jan-15 12:15N 37°32' W 001°04'2320.6
2017-Jan-15 11:07N 37°24' W 001°32'29 1.8
2017-Jan-14 19:04N 37°36' W 000°59'2919.4
2017-Jan-14 17:34N 37°24' W 001°33'2 1.7
2017-Jan-14 16:33N 37°24' W 001°35'0 0.0
2017-Jan-14 15:33N 37°24' W 001°35'0 0.0
2017-Jan-14 14:33N 37°24' W 001°35'0 0.0
2017-Jan-14 13:33N 37°24' W 001°35'0 0.0
2017-Jan-14 12:33N 37°24' W 001°35'2417.5
2017-Jan-14 11:12N 37°32' W 001°06'7 0.4
2017-Jan-13 17:08N 37°36' W 000°59'1118.3
2017-Jan-13 16:32N 37°30' W 001°11'2020.1
2017-Jan-13 15:34N 37°24' W 001°34'0 0.3
2017-Jan-13 14:33N 37°24' W 001°35'0 0.0
2017-Jan-13 13:33N 37°24' W 001°35'0 0.0
2017-Jan-13 12:33N 37°24' W 001°35'0 0.0
2017-Jan-13 11:33N 37°24' W 001°35'0 0.0
2017-Jan-13 10:33N 37°24' W 001°35'3013.9
2017-Jan-13 08:23N 37°35' W 000°59'1 0.0
2017-Jan-12 16:28N 37°36' W 000°59'3015.6
2017-Jan-12 14:33N 37°24' W 001°33'1 1.2
2017-Jan-12 13:33N 37°24' W 001°35'0 0.0
2017-Jan-12 12:33N 37°24' W 001°35'0 0.0
2017-Jan-12 11:33N 37°24' W 001°35'0 0.0
2017-Jan-12 10:33N 37°24' W 001°35'0 0.0
2017-Jan-12 09:33N 37°24' W 001°35'0 0.0
2017-Jan-12 08:33N 37°24' W 001°35'3014.0
2017-Jan-12 06:23N 37°36' W 000°59'  

Dump ship's entire track history